| time (UTC) | temp F | wind direction | speed MPH | gust MPH | rain 1hr in | rain 24hr in | rain mn in | humidity % | barometer mb |
| 20260906024604 | 76 | 219 | 0.0 | 4.0 | 0.00 | 0.00 | 0.00 | 34 | 1022.4 |
| 20260906023121 | 76 | 204 | 0.0 | 2.0 | 0.00 | 0.00 | 0.00 | 35 | 1022.4 |
| 20260906021603 | 77 | 209 | 0.0 | 4.0 | 0.00 | 0.00 | 0.00 | 33 | 1022.5 |
| 20260906020143 | 79 | 167 | 0.0 | 3.0 | 0.00 | 0.00 | 0.00 | 32 | 1022.5 |
| 20260906014504 | 80 | 251 | 2.0 | 9.0 | 0.00 | 0.00 | 0.00 | 31 | 1022.5 |
| 20260906013006 | 76 | 252 | 3.0 | 7.0 | 0.00 | 0.00 | 0.00 | 34 | 1022.6 |
| 20260906011525 | 74 | 257 | 0.0 | 2.0 | 0.00 | 0.00 | 0.00 | 40 | 1022.7 |
| 20260906010033 | 75 | 252 | 0.0 | 3.0 | 0.00 | 0.00 | 0.00 | 40 | 1022.7 |
| 20260906004516 | 74 | 250 | 1.0 | 2.0 | 0.00 | 0.00 | 0.00 | 40 | 1022.6 |
| 20260906003031 | 74 | 268 | 0.0 | 1.0 | 0.00 | 0.00 | 0.00 | 40 | 1022.8 |
| 20260906001636 | 76 | 261 | 0.0 | 2.0 | 0.00 | 0.00 | 0.00 | 38 | 1022.8 |
| 20260906000150 | 77 | 271 | 3.0 | 6.0 | 0.00 | 0.00 | 0.00 | 37 | 1022.9 |
| 20260905234534 | 77 | 266 | 4.0 | 8.0 | 0.00 | 0.00 | 0.00 | 37 | 1022.9 |
| 20260905233047 | 77 | 271 | 3.0 | 8.0 | 0.00 | 0.00 | 0.00 | 37 | 1023.1 |
| 20260905231533 | 77 | 262 | 5.0 | 7.0 | 0.00 | 0.00 | 0.00 | 37 | 1023.1 |
| 20260905230031 | 79 | 260 | 5.0 | 7.0 | 0.00 | 0.00 | 0.00 | 36 | 1023.2 |
| 20260905224610 | 80 | 263 | 6.0 | 9.0 | 0.00 | 0.00 | 0.00 | 36 | 1023.2 |
| 20260905223037 | 80 | 252 | 6.0 | 8.0 | 0.00 | 0.00 | 0.00 | 36 | 1023.1 |
| 20260905221538 | 81 | 259 | 5.0 | 7.0 | 0.00 | 0.00 | 0.00 | 36 | 1023.1 |
| 20260905220004 | 81 | 263 | 4.0 | 8.0 | 0.00 | 0.00 | 0.00 | 36 | 1023.1 |
| 20260905214700 | 80 | 264 | 5.0 | 8.0 | 0.00 | 0.00 | 0.00 | 39 | 1023.2 |
| 20260905213008 | 81 | 247 | 4.0 | 6.0 | 0.00 | 0.00 | 0.00 | 39 | 1023.3 |
| 20260905211543 | 81 | 271 | 3.0 | 6.0 | 0.00 | 0.00 | 0.00 | 40 | 1023.3 |
| 20260905210053 | 79 | 239 | 1.0 | 3.0 | 0.00 | 0.00 | 0.00 | 49 | 1023.2 |
| 20260905204553 | 78 | 222 | 0.0 | 6.0 | 0.00 | 0.00 | 0.00 | 47 | 1023.3 |
| 20260905203111 | 79 | 294 | 0.0 | 2.0 | 0.00 | 0.00 | 0.00 | 52 | 1023.3 |
| 20260905201637 | 78 | 245 | 1.0 | 4.0 | 0.00 | 0.00 | 0.00 | 52 | 1023.4 |
| 20260905200125 | 78 | 263 | 3.0 | 6.0 | 0.00 | 0.00 | 0.00 | 60 | 1023.3 |
| 20260905194625 | 78 | 268 | 3.0 | 6.0 | 0.00 | 0.00 | 0.00 | 58 | 1023.1 |
| 20260905193128 | 78 | 264 | 2.0 | 4.0 | 0.00 | 0.00 | 0.00 | 55 | 1023.1 |
| 20260905191641 | 79 | 275 | 3.0 | 7.0 | 0.00 | 0.00 | 0.00 | 51 | 1023.0 |
| 20260905190100 | 80 | 264 | 3.0 | 6.0 | 0.00 | 0.00 | 0.00 | 49 | 1022.9 |
| 20260905184619 | 81 | 265 | 3.0 | 4.0 | 0.00 | 0.00 | 0.00 | 46 | 1022.8 |
| 20260905183118 | 84 | 287 | 3.0 | 6.0 | 0.00 | 0.00 | 0.00 | 43 | 1022.7 |
| 20260905181636 | 85 | 268 | 1.0 | 5.0 | 0.00 | 0.00 | 0.00 | 41 | 1022.6 |
| 20260905180121 | 87 | 151 | 1.0 | 8.0 | 0.00 | 0.00 | 0.00 | 42 | 1022.6 |
| 20260905174625 | 88 | 165 | 4.0 | 11.0 | 0.00 | 0.00 | 0.00 | 39 | 1022.6 |
| 20260905173056 | 90 | 116 | 5.0 | 10.0 | 0.00 | 0.00 | 0.00 | 37 | 1022.5 |
| 20260905171640 | 91 | 125 | 4.0 | 9.0 | 0.00 | 0.00 | 0.00 | 35 | 1022.5 |
| 20260905170132 | 92 | 152 | 4.0 | 10.0 | 0.00 | 0.00 | 0.00 | 33 | 1022.3 |
| 20260905164637 | 93 | 189 | 4.0 | 12.0 | 0.00 | 0.00 | 0.00 | 30 | 1022.3 |
| 20260905163156 | 93 | 115 | 3.0 | 10.0 | 0.00 | 0.00 | 0.00 | 33 | 1022.2 |
| 20260905161528 | 93 | 140 | 7.0 | 10.0 | 0.00 | 0.00 | 0.00 | 32 | 1022.4 |
| 20260905160053 | 93 | 132 | 6.0 | 10.0 | 0.00 | 0.00 | 0.00 | 31 | 1022.5 |
| 20260905154614 | 92 | 158 | 3.0 | 11.0 | 0.00 | 0.00 | 0.00 | 35 | 1022.4 |
| 20260905153104 | 92 | 166 | 4.0 | 10.0 | 0.00 | 0.00 | 0.00 | 34 | 1022.4 |
| 20260905151618 | 92 | 119 | 6.0 | 12.0 | 0.00 | 0.00 | 0.00 | 35 | 1022.4 |
| 20260905150108 | 92 | 129 | 5.0 | 14.0 | 0.00 | 0.00 | 0.00 | 35 | 1022.5 |
| 20260905144616 | 93 | 131 | 6.0 | 14.0 | 0.00 | 0.00 | 0.00 | 33 | 1022.5 |
| 20260905143142 | 93 | 150 | 7.0 | 16.0 | 0.00 | 0.00 | 0.00 | 33 | 1022.6 |
| 20260905141600 | 94 | 129 | 5.0 | 16.0 | 0.00 | 0.00 | 0.00 | 27 | 1022.6 |
| 20260905140109 | 92 | 73 | 5.0 | 13.0 | 0.00 | 0.00 | 0.00 | 48 | 1022.5 |
| 20260905134621 | 93 | 47 | 7.0 | 15.0 | 0.00 | 0.00 | 0.00 | 46 | 1022.7 |
| 20260905133135 | 93 | 67 | 10.0 | 17.0 | 0.00 | 0.00 | 0.00 | 40 | 1023.0 |
| 20260905131538 | 93 | 87 | 9.0 | 13.0 | 0.00 | 0.00 | 0.00 | 48 | 1023.0 |
| 20260905130046 | 92 | 98 | 6.0 | 11.0 | 0.00 | 0.00 | 0.00 | 51 | 1023.1 |
| 20260905124620 | 92 | 92 | 5.0 | 13.0 | 0.00 | 0.00 | 0.00 | 51 | 1023.1 |
| 20260905123143 | 92 | 81 | 7.0 | 13.0 | 0.00 | 0.00 | 0.00 | 49 | 1023.2 |
| 20260905121505 | 93 | 133 | 9.0 | 13.0 | 0.00 | 0.00 | 0.00 | 50 | 1023.2 |
| 20260905120002 | 93 | 28 | 2.0 | 12.0 | 0.00 | 0.00 | 0.00 | 43 | 1023.1 |
| 20260905114503 | 92 | 158 | 7.0 | 10.0 | 0.00 | 0.00 | 0.00 | 42 | 1023.1 |
| 20260905111510 | 91 | 167 | 6.0 | 13.0 | 0.00 | 0.00 | 0.00 | 43 | 1023.3 |
| 20260905110159 | 90 | 122 | 6.0 | 11.0 | 0.00 | 0.00 | 0.00 | 43 | 1023.3 |
| 20260905103009 | 90 | 56 | 6.0 | 9.0 | 0.00 | 0.00 | 0.00 | 44 | 1023.6 |
| 20260905101523 | 88 | 38 | 4.0 | 11.0 | 0.00 | 0.00 | 0.00 | 46 | 1023.6 |
| 20260905100022 | 87 | 79 | 9.0 | 14.0 | 0.00 | 0.00 | 0.00 | 50 | 1023.6 |
| 20260905100003 | 87 | 85 | 9.0 | 14.0 | 0.00 | 0.00 | 0.00 | 50 | 1023.6 |
| 20260905094600 | 86 | 79 | 6.0 | 10.0 | 0.00 | 0.00 | 0.00 | 52 | 1023.6 |
| 20260905093117 | 85 | 71 | 6.0 | 12.0 | 0.00 | 0.00 | 0.00 | 56 | 1023.4 |
| 20260905091614 | 85 | 83 | 7.0 | 13.0 | 0.00 | 0.00 | 0.00 | 55 | 1023.3 |
| 20260905090114 | 85 | 54 | 7.0 | 13.0 | 0.00 | 0.00 | 0.00 | 52 | 1023.0 |
| 20260905084621 | 86 | 56 | 4.0 | 9.0 | 0.00 | 0.00 | 0.00 | 46 | 1022.9 |
| 20260905083123 | 87 | 5 | 4.0 | 8.0 | 0.00 | 0.00 | 0.00 | 42 | 1022.6 |
| 20260905081648 | 88 | 65 | 4.0 | 9.0 | 0.00 | 0.00 | 0.00 | 37 | 1022.5 |
| 20260905080125 | 89 | 61 | 2.0 | 4.0 | 0.00 | 0.00 | 0.00 | 34 | 1022.2 |
| 20260905074516 | 87 | 185 | 0.0 | 2.0 | 0.00 | 0.00 | 0.00 | 36 | 1022.2 |
| 20260905073037 | 85 | 171 | 1.0 | 2.0 | 0.00 | 0.00 | 0.00 | 39 | 1022.2 |
| 20260905071553 | 82 | 287 | 2.0 | 4.0 | 0.00 | 0.00 | 0.00 | 43 | 1022.2 |
| 20260905070143 | 78 | 264 | 0.0 | 2.0 | 0.00 | 0.00 | 0.00 | 50 | 1022.1 |
| 20260905063013 | 73 | 281 | 2.0 | 4.0 | 0.00 | 0.00 | 0.00 | 55 | 1021.8 |
| 20260905061527 | 72 | 261 | 2.0 | 3.0 | 0.00 | 0.00 | 0.00 | 58 | 1021.7 |
| 20260905060024 | 71 | 277 | 1.0 | 3.0 | 0.00 | 0.00 | 0.00 | 59 | 1021.6 |
| 20260905054518 | 71 | 260 | 2.0 | 4.0 | 0.00 | 0.00 | 0.00 | 60 | 1021.6 |
| 20260905053030 | 71 | 285 | 2.0 | 4.0 | 0.00 | 0.00 | 0.00 | 61 | 1021.7 |
| 20260905051533 | 70 | 269 | 2.0 | 4.0 | 0.00 | 0.00 | 0.00 | 62 | 1021.5 |
| 20260905050045 | 70 | 273 | 2.0 | 3.0 | 0.00 | 0.00 | 0.00 | 64 | 1021.5 |
| 20260905044611 | 70 | 267 | 2.0 | 4.0 | 0.00 | 0.00 | 0.00 | 65 | 1021.5 |
| 20260905043135 | 70 | 289 | 1.0 | 2.0 | 0.00 | 0.00 | 0.00 | 65 | 1021.5 |
| 20260905041624 | 70 | 289 | 0.0 | 2.0 | 0.00 | 0.00 | 0.00 | 67 | 1021.4 |
| 20260905040121 | 70 | 289 | 0.0 | 2.0 | 0.00 | 0.00 | 0.00 | 68 | 1021.4 |
| 20260905034612 | 70 | 280 | 1.0 | 3.0 | 0.00 | 0.00 | 0.00 | 68 | 1021.4 |
| 20260905033120 | 70 | 290 | 2.0 | 3.0 | 0.00 | 0.00 | 0.00 | 69 | 1021.5 |
| 20260905031640 | 70 | 284 | 0.0 | 2.0 | 0.00 | 0.00 | 0.00 | 71 | 1021.5 |
| 20260905030147 | 70 | 284 | 1.0 | 4.0 | 0.00 | 0.00 | 0.00 | 72 | 1021.6 |